createdAt,value
2019-04-23T00:08:07.125Z,13.50
2019-04-23T00:18:04.167Z,13.50
2019-04-23T00:38:28.717Z,13.40
2019-04-23T00:48:35.267Z,13.10
2019-04-23T00:58:41.209Z,13.00
2019-04-23T01:08:55.221Z,13.00
2019-04-23T01:18:54.438Z,12.80
2019-04-23T01:29:07.052Z,12.80
2019-04-23T01:49:31.189Z,12.70
2019-04-23T01:59:33.495Z,12.60
2019-04-23T02:09:45.351Z,12.50
2019-04-23T02:19:59.410Z,12.40
2019-04-23T02:30:05.920Z,12.50
2019-04-23T02:40:22.995Z,12.50
2019-04-23T02:50:36.746Z,12.50
2019-04-23T03:00:29.107Z,12.50
2019-04-23T03:10:43.325Z,12.30
2019-04-23T03:32:34.165Z,12.10
2019-04-23T03:41:09.170Z,12.00
2019-04-23T03:51:03.338Z,12.00
2019-04-23T04:11:25.490Z,11.90
2019-04-23T04:31:42.369Z,12.10
2019-04-23T04:52:03.187Z,12.10
2019-04-23T05:02:01.198Z,12.10
2019-04-23T05:12:19.255Z,12.20
2019-04-23T05:32:14.867Z,12.50
2019-04-23T05:42:22.592Z,12.80
2019-04-23T05:52:29.199Z,12.90
2019-04-23T06:12:37.063Z,13.10
2019-04-23T06:22:49.580Z,13.20
2019-04-23T06:33:00.921Z,13.40
2019-04-23T06:53:27.286Z,13.60
2019-04-23T07:03:41.637Z,13.80
2019-04-23T07:13:55.717Z,14.00
2019-04-23T07:24:05.340Z,14.30
2019-04-23T07:44:40.354Z,14.80
2019-04-23T07:54:42.437Z,15.10
2019-04-23T08:04:57.950Z,15.20
2019-04-23T08:14:53.622Z,15.50
2019-04-23T08:25:15.764Z,15.80
2019-04-23T08:35:20.747Z,16.20
2019-04-23T08:45:46.231Z,16.60
2019-04-23T09:16:11.989Z,17.50
2019-04-23T09:26:06.361Z,18.10
2019-04-23T09:36:45.625Z,18.50
2019-04-23T09:47:01.929Z,19.10
2019-04-23T09:56:57.095Z,19.20
2019-04-23T10:06:56.431Z,19.30
2019-04-23T10:16:49.247Z,19.80
2019-04-23T10:26:55.810Z,20.00
2019-04-23T10:37:01.955Z,20.60
2019-04-23T10:47:55.877Z,21.50
2019-04-23T10:58:04.186Z,22.50
2019-04-23T11:08:02.178Z,23.80
2019-04-23T11:18:07.203Z,24.40
2019-04-23T11:58:42.556Z,23.80
2019-04-23T12:09:25.735Z,23.70
2019-04-23T12:19:53.071Z,23.00
2019-04-23T12:39:42.602Z,23.10
2019-04-23T12:50:13.539Z,23.50
2019-04-23T12:59:58.233Z,24.00
2019-04-23T13:10:11.978Z,24.30
2019-04-23T13:30:23.185Z,24.80
2019-04-23T13:40:36.489Z,25.20
2019-04-23T14:10:44.842Z,25.00
2019-04-23T14:20:59.022Z,25.00
2019-04-23T14:41:21.267Z,25.40
2019-04-23T14:51:22.895Z,25.50
2019-04-23T15:31:52.024Z,27.60
2019-04-23T15:41:57.229Z,28.00
2019-04-23T15:52:20.791Z,27.00
2019-04-23T16:01:42.999Z,26.70
2019-04-23T16:12:06.611Z,25.10
2019-04-23T16:22:18.977Z,23.60
2019-04-23T16:33:03.278Z,22.60
2019-04-23T16:43:08.981Z,22.00
2019-04-23T16:53:19.793Z,21.70
2019-04-23T17:13:24.174Z,20.80
2019-04-23T17:23:39.601Z,20.50
2019-04-23T17:33:43.482Z,20.00
2019-04-23T17:43:54.518Z,19.90
2019-04-23T17:53:58.195Z,19.50
2019-04-23T18:04:13.927Z,19.20
2019-04-23T18:24:51.179Z,18.50
2019-04-23T18:35:19.312Z,18.30
2019-04-23T18:45:31.590Z,18.10
2019-04-23T18:55:45.175Z,17.90
2019-04-23T19:05:55.045Z,17.90
2019-04-23T19:16:01.904Z,17.80
2019-04-23T19:25:59.123Z,17.70
2019-04-23T19:36:14.594Z,17.40
2019-04-23T19:46:41.933Z,17.20
2019-04-23T20:06:51.054Z,17.00
2019-04-23T20:26:41.195Z,16.90
2019-04-23T20:36:49.103Z,16.80
2019-04-23T20:47:06.164Z,16.80
2019-04-23T21:07:48.850Z,16.60
2019-04-23T21:28:18.033Z,16.10
2019-04-23T21:38:23.353Z,16.10
2019-04-23T21:48:15.602Z,16.20
2019-04-23T21:58:25.760Z,16.10
2019-04-23T22:08:26.767Z,16.00
2019-04-23T22:18:48.473Z,16.10
2019-04-23T22:28:48.929Z,16.00
2019-04-23T22:38:52.201Z,15.90
2019-04-23T23:09:25.960Z,15.80
2019-04-23T23:19:40.467Z,15.90
2019-04-23T23:29:41.953Z,15.80
2019-04-23T23:39:49.622Z,16.00
2019-04-23T23:50:00.913Z,16.00
